Latest Weather Observations for Lancelin (Defence)

IDW60801

Issued at 9:43 am WST Friday 18 October 2019 (issued every 10 minutes, with the page automatically refreshed every 10 minutes)

About weather observations | Map of weather stations | Latest weather observations for WA | Other Formats
Station Details ID: 009280 Name: LANCELIN (DEFENCE) Lat: -30.84 Lon: 115.23 Height: 7.0 m
Data from the previous 72 hours. | See also: Recent months at Lancelin (Defence)
Date/Time
WST
Temp
°C
App
Temp
°C
Dew
Point
°C
Rel
Hum
%
Delta-T
°C
Wind Press
QNH
hPa
Press
MSL
hPa
Rain since
9am
mm
Dir  Spd
km/h
Gust
km/h
Spd
kts
Gust
kts
18/09:30am 20.8 17.1 9.4 48 6.1 ESE 19 32 10 17 1020.1 1020.1 0.0
18/09:00am 19.3 15.5 9.8 54 5.0 ESE 20 33 11 18 1020.3 1020.3 0.0
18/08:30am 17.5 14.3 9.9 61 4.0 SE 17 30 9 16 1020.9 1020.9 0.0
18/08:00am 15.8 11.9 9.5 66 3.3 SE 20 33 11 18 1020.9 1020.9 0.0
18/07:30am 14.8 10.5 9.4 70 2.8 ESE 22 35 12 19 1020.9 1020.9 0.0
18/07:00am 14.0 10.7 9.6 75 2.3 SE 17 28 9 15 1020.8 1020.8 0.0
18/06:30am 12.6 10.1 9.8 83 1.4 SE 13 20 7 11 1020.5 1020.5 0.0
18/06:00am 10.2 8.0 9.3 94 0.4 SE 11 13 6 7 1020.2 1020.2 0.0
18/05:30am 9.9 7.9 8.7 92 0.6 SE 9 11 5 6 1020.1 1020.1 0.0
18/05:00am 10.8 8.5 9.1 89 0.8 SE 11 17 6 9 1020.0 1020.0 0.0
18/04:30am 11.7 8.8 9.6 87 1.1 SE 15 20 8 11 1019.7 1019.7 0.0
18/04:00am 12.2 8.9 9.6 84 1.3 SE 17 22 9 12 1019.4 1019.4 0.0
18/03:30am 12.9 9.6 9.7 81 1.6 SE 17 26 9 14 1019.2 1019.2 0.0
18/03:00am 13.5 9.7 9.9 79 1.8 SE 20 33 11 18 1019.0 1019.0 0.0
18/02:30am 13.8 10.7 11.7 87 1.1 SE 19 28 10 15 1019.1 1019.1 0.0
18/02:00am 13.9 11.7 12.1 89 1.0 SE 15 24 8 13 1019.1 1019.1 0.0
18/01:30am 14.8 12.4 12.5 86 1.3 SE 17 26 9 14 1019.3 1019.3 0.0
18/01:00am 14.8 12.4 12.7 87 1.1 SE 17 26 9 14 1019.4 1019.4 0.0
18/12:30am 14.4 12.3 12.3 87 1.1 SE 15 22 8 12 1019.5 1019.5 0.0
18/12:00am 14.4 11.9 12.3 87 1.1 SE 17 22 9 12 1019.6 1019.6 0.0
 
Date/Time
WST
Temp
°C
App
Temp
°C
Dew
Point
°C
Rel
Hum
%
Delta-T
°C
Wind Press
QNH
hPa
Press
MSL
hPa
Rain since
9am
mm
Dir  Spd
km/h
Gust
km/h
Spd
kts
Gust
kts
17/11:30pm 14.5 12.0 12.2 86 1.2 SE 17 28 9 15 1019.7 1019.7 0.0
17/11:00pm 14.2 12.0 12.1 87 1.1 SE 15 24 8 13 1019.7 1019.7 0.0
17/10:30pm 14.2 11.9 11.7 85 1.3 SE 15 24 8 13 1020.0 1020.0 0.0
17/10:00pm 14.7 12.3 11.5 81 1.7 SE 15 20 8 11 1020.4 1020.4 0.0
17/09:30pm 16.9 11.6 12.4 75 2.5 SSE 32 41 17 22 1020.6 1020.6 0.0
17/09:00pm 16.7 11.7 12.3 75 2.4 SSE 30 43 16 23 1020.5 1020.5 0.0
17/08:30pm 16.9 11.9 12.2 74 2.6 SSE 30 41 16 22 1020.3 1020.3 0.0
17/08:00pm 16.8 12.2 12.3 75 2.5 SSE 28 39 15 21 1020.2 1020.2 0.0
17/07:30pm 16.6 11.8 11.7 73 2.7 SSE 28 39 15 21 1020.1 1020.1 0.0
17/07:00pm 16.8 12.4 11.7 72 2.8 SSE 26 39 14 21 1020.0 1020.0 0.0
17/06:30pm 16.9 12.5 11.6 71 2.9 S 26 35 14 19 1020.1 1020.1 0.0
17/06:00pm 17.2 13.0 11.2 68 3.2 SSE 24 37 13 20 1019.9 1019.9 0.0
17/05:30pm 17.4 12.1 11.4 68 3.3 S 30 43 16 23 1019.6 1019.6 0.0
17/05:00pm 17.8 12.0 10.9 64 3.7 S 32 43 17 23 1019.6 1019.6 0.0
17/04:30pm 18.2 13.1 12.0 67 3.4 S 30 43 16 23 1019.5 1019.5 0.0
17/04:00pm 18.9 13.8 11.9 64 3.9 S 30 41 16 22 1019.6 1019.6 0.0
17/03:30pm 18.5 13.0 10.6 60 4.3 S 30 43 16 23 1019.5 1019.5 0.0
17/03:00pm 19.6 14.7 11.4 59 4.5 S 28 39 15 21 1019.4 1019.4 0.0
17/02:30pm 19.4 13.9 10.4 56 4.8 S 30 41 16 22 1019.5 1019.5 0.0
17/02:00pm 19.8 14.6 10.2 54 5.1 S 28 41 15 22 1019.9 1019.9 0.0
17/01:30pm 20.0 14.5 9.3 50 5.7 S 28 41 15 22 1020.2 1020.2 0.0
17/01:00pm 19.9 14.4 9.2 50 5.6 S 28 39 15 21 1020.3 1020.3 0.0
17/12:30pm 19.8 14.4 9.4 51 5.5 S 28 39 15 21 1020.5 1020.5 0.0
17/12:00pm 20.0 15.1 10.1 53 5.3 SSE 26 39 14 21 1020.8 1020.8 0.0
17/11:30am 19.4 14.8 10.9 58 4.6 SSE 26 35 14 19 1021.1 1021.1 0.0
17/11:00am 19.4 15.6 11.2 59 4.5 S 22 33 12 18 1021.5 1021.5 0.0
17/10:30am 18.9 15.2 10.2 57 4.7 SSE 20 30 11 16 1021.7 1021.7 0.0
17/10:00am 18.6 14.5 10.2 58 4.5 S 22 32 12 17 1022.0 1022.0 0.0
17/09:30am 17.6 13.6 9.2 58 4.4 SSE 20 30 11 16 1022.3 1022.3 0.0
17/09:00am 17.1 13.2 9.3 60 4.0 SSE 20 28 11 15 1022.3 1022.3 0.0
17/08:30am 16.3 11.8 8.5 60 4.0 SSE 22 30 12 16 1022.4 1022.4 0.0
17/08:00am 16.0 11.4 8.2 60 3.9 SSE 22 30 12 16 1022.4 1022.4 0.0
17/07:30am 15.2 11.6 8.2 63 3.5 SE 17 24 9 13 1022.3 1022.3 0.0
17/07:00am 13.9 11.2 9.1 73 2.4 SE 13 19 7 10 1022.1 1022.1 0.0
17/06:30am 12.0 9.3 9.0 82 1.5 ESE 13 17 7 9 1021.8 1021.8 0.0
17/06:00am 10.6 8.3 8.9 89 0.8 SE 11 15 6 8 1021.8 1021.8 0.0
17/05:30am 10.2 8.5 8.5 89 0.8 SE 7 11 4 6 1021.8 1021.8 0.0
17/05:00am 10.4 8.5 9.0 91 0.7 SE 9 13 5 7 1021.5 1021.5 0.0
17/04:30am 10.5 9.0 9.1 91 0.7 SE 7 9 4 5 1021.3 1021.3 0.0
17/04:00am 10.7 8.9 9.5 92 0.6 SE 9 11 5 6 1021.3 1021.3 0.0
17/03:30am 10.8 9.0 9.6 92 0.6 SE 9 13 5 7 1021.2 1021.2 0.0
17/03:00am 10.3 8.7 8.7 90 0.8 SE 7 9 4 5 1021.2 1021.2 0.0
17/02:30am 11.0 9.5 9.1 88 0.9 SE 7 9 4 5 1021.2 1021.2 0.0
17/02:00am 11.4 9.5 9.0 85 1.2 SE 9 11 5 6 1021.4 1021.4 0.0
17/01:30am 11.8 9.9 9.2 84 1.3 ESE 9 15 5 8 1021.6 1021.6 0.0
17/01:00am 11.9 10.0 8.9 82 1.5 ESE 9 13 5 7 1022.0 1022.0 0.0
17/12:30am 11.8 9.8 8.8 82 1.5 ESE 9 11 5 6 1022.2 1022.2 0.0
17/12:00am 11.9 9.5 8.7 81 1.6 ESE 11 15 6 8 1022.5 1022.5 0.0
 
Date/Time
WST
Temp
°C
App
Temp
°C
Dew
Point
°C
Rel
Hum
%
Delta-T
°C
Wind Press
QNH
hPa
Press
MSL
hPa
Rain since
9am
mm
Dir  Spd
km/h
Gust
km/h
Spd
kts
Gust
kts
16/11:30pm 12.2 10.5 8.3 77 1.9 SE 7 11 4 6 1022.7 1022.7 0.0
16/11:00pm 12.8 10.7 8.3 74 2.2 SE 9 15 5 8 1022.9 1022.9 0.0
16/10:30pm 13.0 10.1 8.3 73 2.3 ESE 13 17 7 9 1023.2 1023.2 0.0
16/10:00pm 14.0 11.1 8.2 68 2.9 SE 13 17 7 9 1023.3 1023.3 0.0
16/09:30pm 16.5 12.2 9.4 63 3.7 SSE 22 35 12 19 1023.3 1023.3 0.0
16/09:00pm 16.5 11.0 9.2 62 3.8 SSE 28 39 15 21 1023.3 1023.3 0.0
16/08:30pm 16.5 11.5 9.4 63 3.7 SSE 26 41 14 22 1023.4 1023.4 0.0
16/08:00pm 16.5 11.0 9.2 62 3.8 SSE 28 41 15 22 1023.3 1023.3 0.0
16/07:30pm 16.6 11.1 9.3 62 3.8 S 28 39 15 21 1023.2 1023.2 0.0
16/07:00pm 16.6 11.2 8.1 57 4.3 SSE 26 37 14 20 1023.0 1023.0 0.0
16/06:30pm 16.7 11.3 8.1 57 4.4 S 26 37 14 20 1023.0 1023.0 0.0
16/06:00pm 17.2 11.9 8.4 56 4.5 S 26 37 14 20 1022.8 1022.8 0.0
16/05:30pm 17.6 12.2 7.9 53 4.9 SSE 26 37 14 20 1022.7 1022.7 0.0
16/05:00pm 18.1 12.8 8.4 53 5.0 S 26 39 14 21 1022.6 1022.6 0.0
16/04:30pm 18.2 12.8 8.2 52 5.1 S 26 39 14 21 1022.8 1022.8 0.0
16/04:00pm 18.6 13.5 9.1 54 4.9 S 26 37 14 20 1022.8 1022.8 0.0
16/03:30pm 18.6 13.0 8.6 52 5.2 S 28 39 15 21 1022.8 1022.8 0.0
16/03:00pm 18.8 13.0 7.9 49 5.6 S 28 37 15 20 1023.1 1023.1 0.0
16/02:30pm 18.9 14.0 8.3 50 5.5 S 24 37 13 20 1023.3 1023.3 0.0
16/02:00pm 18.9 13.7 8.8 52 5.2 S 26 35 14 19 1023.7 1023.7 0.0
16/01:30pm 19.2 13.8 8.2 49 5.7 S 26 35 14 19 1023.7 1023.7 0.0
16/01:00pm 19.9 14.8 7.6 45 6.3 S 24 32 13 17 1023.9 1023.9 0.0
16/12:30pm 19.2 13.7 7.6 47 5.9 S 26 33 14 18 1024.2 1024.2 0.0
16/12:00pm 19.3 14.4 6.8 44 6.3 S 22 32 12 17 1024.3 1024.3 0.0
16/11:30am 19.0 13.8 7.4 47 5.9 S 24 32 13 17 1024.5 1024.5 0.0
16/11:00am 19.0 14.8 5.8 42 6.5 S 17 24 9 13 1024.8 1024.8 0.0
16/10:30am 20.0 16.2 4.1 35 7.6 ESE 13 22 7 12 1025.1 1025.1 0.0
16/10:00am 19.3 15.4 3.5 35 7.4 ESE 13 20 7 11 1025.2 1025.2 0.0
16/09:30am 18.2 13.7 4.4 40 6.6 ESE 17 26 9 14 1025.3 1025.3 0.0
16/09:00am 18.0 13.5 4.2 40 6.5 ESE 17 26 9 14 1025.5 1025.5 0.0
16/08:30am 16.4 12.2 5.7 49 5.2 E 17 26 9 14 1025.4 1025.4 0.0
16/08:00am 15.4 11.3 6.4 55 4.3 ESE 17 24 9 13 1025.6 1025.6 0.0
16/07:30am 14.2 9.9 6.8 61 3.6 E 19 28 10 15 1025.5 1025.5 0.0
16/07:00am 12.9 9.0 7.1 68 2.8 E 17 24 9 13 1025.5 1025.5 0.0
16/06:30am 11.6 8.1 7.3 75 2.1 E 15 22 8 12 1025.3 1025.3 0.0
16/06:00am 10.1 7.0 7.2 82 1.4 E 13 20 7 11 1025.1 1025.1 0.0
16/05:30am 9.7 6.9 7.0 83 1.3 ENE 11 17 6 9 1024.8 1024.8 0.0
16/05:00am 10.8 7.7 7.3 79 1.7 E 13 22 7 12 1024.5 1024.5 0.0
16/04:30am 10.8 8.2 7.9 82 1.4 ESE 11 17 6 9 1024.6 1024.6 0.0
16/04:00am 11.0 7.2 7.7 80 1.6 ESE 17 24 9 13 1024.4 1024.4 0.0
16/03:30am 10.9 8.2 7.4 79 1.7 ESE 11 19 6 10 1024.4 1024.4 0.0
16/03:00am 11.3 7.9 7.8 79 1.7 ESE 15 22 8 12 1024.3 1024.3 0.0
16/02:30am 11.4 8.5 8.3 81 1.5 ESE 13 19 7 10 1024.3 1024.3 0.0
16/02:00am 11.5 9.4 8.4 81 1.5 ESE 9 15 5 8 1024.3 1024.3 0.0
16/01:30am 11.9 9.1 8.4 79 1.7 E 13 20 7 11 1024.3 1024.3 0.0
16/01:00am 12.0 9.6 8.7 80 1.6 ESE 11 17 6 9 1024.5 1024.5 0.0
16/12:30am 11.6 9.4 7.7 77 1.9 ESE 9 13 5 7 1024.5 1024.5 0.0
16/12:00am 12.1 9.8 7.6 74 2.2 E 9 15 5 8 1024.6 1024.6 0.0
 
Date/Time
WST
Temp
°C
App
Temp
°C
Dew
Point
°C
Rel
Hum
%
Delta-T
°C
Wind Press
QNH
hPa
Press
MSL
hPa
Rain since
9am
mm
Dir  Spd
km/h
Gust
km/h
Spd
kts
Gust
kts
15/11:30pm 14.9 10.7 8.2 64 3.4 SE 20 33 11 18 1024.5 1024.5 0.0
15/11:00pm 16.1 10.6 9.3 64 3.5 SSE 28 39 15 21 1024.5 1024.5 0.0
15/10:30pm 16.3 11.5 10.2 67 3.2 SSE 26 41 14 22 1024.7 1024.7 0.0
15/10:00pm 16.3 11.7 9.7 65 3.4 SSE 24 37 13 20 1024.8 1024.8 0.0
15/09:30pm 16.5 10.5 8.7 60 4.0 SSE 30 37 16 20 1024.9 1024.9 0.0
15/09:00pm 16.4 10.9 7.6 56 4.4 SSE 26 37 14 20 1025.0 1025.0 0.0
15/08:30pm 16.3 11.0 8.3 59 4.1 S 26 41 14 22 1024.7 1024.7 0.0
15/08:00pm 16.3 10.5 8.0 58 4.2 S 28 39 15 21 1024.5 1024.5 0.0
15/07:30pm 16.1 11.1 8.1 59 4.0 S 24 35 13 19 1024.3 1024.3 0.0
15/07:00pm 15.9 9.7 7.9 59 4.0 SSE 30 41 16 22 1023.7 1023.7 0.0
15/06:30pm 15.8 9.7 6.8 55 4.4 S 28 39 15 21 1023.4 1023.4 0.0
15/06:00pm 16.1 10.2 7.6 57 4.2 SSE 28 39 15 21 1023.2 1023.2 0.0
15/05:30pm 16.6 11.5 9.1 61 3.9 SSE 26 39 14 21 1023.0 1023.0 0.0
15/05:00pm 16.7 11.3 8.1 57 4.3 SSE 26 39 14 21 1023.0 1023.0 0.0
15/04:30pm 17.2 12.1 7.8 54 4.8 S 24 35 13 19 1022.8 1022.8 0.0
15/04:00pm 17.6 12.7 8.5 55 4.7 SSE 24 37 13 20 1022.8 1022.8 0.0
15/03:30pm 17.9 12.5 7.9 52 5.1 SSE 26 39 14 21 1022.8 1022.8 0.0
15/03:00pm 17.5 11.0 6.4 48 5.4 S 30 39 16 21 1023.0 1023.0 0.0
15/02:30pm 17.8 12.1 6.7 48 5.5 SSE 26 37 14 20 1023.2 1023.2 0.0
15/02:00pm 17.8 12.1 6.7 48 5.5 SSE 26 35 14 19 1023.3 1023.3 0.0
15/01:30pm 18.1 13.0 7.5 50 5.4 SSE 24 35 13 19 1023.5 1023.5 0.0
15/01:00pm 17.7 12.1 7.2 50 5.2 S 26 41 14 22 1023.8 1023.8 0.0
15/12:30pm 17.6 11.5 6.8 49 5.4 S 28 39 15 21 1024.0 1024.0 0.0
15/12:00pm 17.4 11.7 6.9 50 5.2 S 26 35 14 19 1024.1 1024.1 0.0
15/11:30am 17.6 11.5 6.8 49 5.4 S 28 41 15 22 1024.2 1024.2 0.0
15/11:00am 17.4 11.7 6.9 50 5.2 S 26 37 14 20 1024.4 1024.4 0.0
15/10:30am 18.0 13.5 6.2 46 5.8 S 19 30 10 16 1024.5 1024.5 0.0
15/10:00am 17.2 11.9 5.2 45 5.7 SSE 22 32 12 17 1024.5 1024.5 0.0

Other formats

Comma delimited format used in spreadsheet applications
http://www.bom.gov.au/fwo/IDW60801/IDW60801.95609.axf

JavaScript Object Notation format (JSON) in row-major order
http://www.bom.gov.au/fwo/IDW60801/IDW60801.95609.json

Data quality

Most of these data are generated automatically and are frequently updated. Quality checks on data are not normally performed. It is possible for incorrect values to appear. Refer to information at About Latest Weather Observations and please check the disclaimer before using these data.